sensor_id;sensor_type;location;lat;lon;timestamp;temperature;humidity
820;DHT22;392;48.838;2.322;2023-08-06T00:01:11;16.40;76.50
820;DHT22;392;48.838;2.322;2023-08-06T00:03:39;16.50;76.90
820;DHT22;392;48.838;2.322;2023-08-06T00:06:07;16.50;76.10
820;DHT22;392;48.838;2.322;2023-08-06T00:08:34;16.60;74.90
820;DHT22;392;48.838;2.322;2023-08-06T00:11:01;16.60;74.10
820;DHT22;392;48.838;2.322;2023-08-06T00:13:28;16.60;73.80
820;DHT22;392;48.838;2.322;2023-08-06T00:15:56;16.50;74.00
820;DHT22;392;48.838;2.322;2023-08-06T00:18:35;16.50;74.50
820;DHT22;392;48.838;2.322;2023-08-06T00:21:04;16.50;74.50
820;DHT22;392;48.838;2.322;2023-08-06T00:23:32;16.50;73.50
820;DHT22;392;48.838;2.322;2023-08-06T00:25:59;16.50;73.20
820;DHT22;392;48.838;2.322;2023-08-06T00:28:26;16.50;73.50
820;DHT22;392;48.838;2.322;2023-08-06T00:30:54;16.40;72.20
820;DHT22;392;48.838;2.322;2023-08-06T00:33:21;16.40;71.80
820;DHT22;392;48.838;2.322;2023-08-06T00:35:49;16.40;70.60
820;DHT22;392;48.838;2.322;2023-08-06T00:38:18;16.40;70.60
820;DHT22;392;48.838;2.322;2023-08-06T00:40:45;16.50;70.20
820;DHT22;392;48.838;2.322;2023-08-06T00:43:13;16.50;70.20
820;DHT22;392;48.838;2.322;2023-08-06T00:45:40;16.60;69.20
820;DHT22;392;48.838;2.322;2023-08-06T00:48:07;16.50;69.80
820;DHT22;392;48.838;2.322;2023-08-06T00:50:35;16.50;71.80
820;DHT22;392;48.838;2.322;2023-08-06T00:53:02;16.50;71.40
820;DHT22;392;48.838;2.322;2023-08-06T00:55:31;16.40;71.70
820;DHT22;392;48.838;2.322;2023-08-06T00:57:59;16.30;70.60
820;DHT22;392;48.838;2.322;2023-08-06T01:00:26;16.40;71.80
820;DHT22;392;48.838;2.322;2023-08-06T01:02:54;16.30;72.50
820;DHT22;392;48.838;2.322;2023-08-06T01:05:21;16.20;72.90
820;DHT22;392;48.838;2.322;2023-08-06T01:08:01;16.20;75.40
820;DHT22;392;48.838;2.322;2023-08-06T01:10:48;16.10;76.10
820;DHT22;392;48.838;2.322;2023-08-06T01:13:27;16.00;77.50
820;DHT22;392;48.838;2.322;2023-08-06T01:16:00;16.10;77.60
820;DHT22;392;48.838;2.322;2023-08-06T01:18:28;16.00;77.30
820;DHT22;392;48.838;2.322;2023-08-06T01:20:57;16.00;78.10
820;DHT22;392;48.838;2.322;2023-08-06T01:23:24;15.90;78.20
820;DHT22;392;48.838;2.322;2023-08-06T01:26:00;15.90;78.40
820;DHT22;392;48.838;2.322;2023-08-06T01:28:38;15.90;78.20
820;DHT22;392;48.838;2.322;2023-08-06T01:31:13;15.90;79.10
820;DHT22;392;48.838;2.322;2023-08-06T01:33:45;15.80;78.80
820;DHT22;392;48.838;2.322;2023-08-06T01:36:16;15.70;79.60
820;DHT22;392;48.838;2.322;2023-08-06T01:38:44;15.80;79.60
820;DHT22;392;48.838;2.322;2023-08-06T01:41:11;15.80;77.30
820;DHT22;392;48.838;2.322;2023-08-06T01:43:38;15.80;76.60
820;DHT22;392;48.838;2.322;2023-08-06T01:46:05;15.80;75.10
820;DHT22;392;48.838;2.322;2023-08-06T01:48:32;15.90;74.40
820;DHT22;392;48.838;2.322;2023-08-06T01:50:59;15.90;72.50
820;DHT22;392;48.838;2.322;2023-08-06T01:53:28;16.00;71.20
820;DHT22;392;48.838;2.322;2023-08-06T01:55:56;16.00;70.00
820;DHT22;392;48.838;2.322;2023-08-06T01:58:24;16.10;68.60
820;DHT22;392;48.838;2.322;2023-08-06T02:00:51;16.10;68.60
820;DHT22;392;48.838;2.322;2023-08-06T02:03:18;16.10;66.60
820;DHT22;392;48.838;2.322;2023-08-06T02:05:48;16.10;66.50
820;DHT22;392;48.838;2.322;2023-08-06T02:08:15;16.20;66.50
820;DHT22;392;48.838;2.322;2023-08-06T02:10:44;16.20;66.40
820;DHT22;392;48.838;2.322;2023-08-06T02:13:12;16.10;66.50
820;DHT22;392;48.838;2.322;2023-08-06T02:15:42;16.20;65.90
820;DHT22;392;48.838;2.322;2023-08-06T02:18:10;16.10;65.60
820;DHT22;392;48.838;2.322;2023-08-06T02:20:37;16.00;66.80
820;DHT22;392;48.838;2.322;2023-08-06T02:23:04;16.10;66.60
820;DHT22;392;48.838;2.322;2023-08-06T02:25:31;16.10;66.10
820;DHT22;392;48.838;2.322;2023-08-06T02:28:00;16.10;65.80
820;DHT22;392;48.838;2.322;2023-08-06T02:30:28;16.10;66.80
820;DHT22;392;48.838;2.322;2023-08-06T02:32:56;16.10;66.30
820;DHT22;392;48.838;2.322;2023-08-06T02:35:23;16.10;66.30
820;DHT22;392;48.838;2.322;2023-08-06T02:37:50;16.00;66.30
820;DHT22;392;48.838;2.322;2023-08-06T02:40:18;16.00;67.00
820;DHT22;392;48.838;2.322;2023-08-06T02:42:45;16.00;66.50
820;DHT22;392;48.838;2.322;2023-08-06T02:45:15;16.00;66.50
820;DHT22;392;48.838;2.322;2023-08-06T02:47:42;16.00;66.50
820;DHT22;392;48.838;2.322;2023-08-06T02:50:09;16.00;65.80
820;DHT22;392;48.838;2.322;2023-08-06T02:52:37;16.00;66.10
820;DHT22;392;48.838;2.322;2023-08-06T02:55:06;16.00;65.80
820;DHT22;392;48.838;2.322;2023-08-06T02:57:37;16.00;65.10
820;DHT22;392;48.838;2.322;2023-08-06T03:00:06;16.00;65.40
820;DHT22;392;48.838;2.322;2023-08-06T03:07:49;15.90;64.40
820;DHT22;392;48.838;2.322;2023-08-06T03:10:21;15.80;65.10
820;DHT22;392;48.838;2.322;2023-08-06T03:12:51;15.80;64.60
820;DHT22;392;48.838;2.322;2023-08-06T03:15:19;15.80;65.00
820;DHT22;392;48.838;2.322;2023-08-06T03:17:49;15.80;64.90
820;DHT22;392;48.838;2.322;2023-08-06T03:20:19;15.90;65.80
820;DHT22;392;48.838;2.322;2023-08-06T03:22:47;15.90;65.30
820;DHT22;392;48.838;2.322;2023-08-06T03:25:15;15.90;64.30
820;DHT22;392;48.838;2.322;2023-08-06T03:27:46;15.80;65.00
820;DHT22;392;48.838;2.322;2023-08-06T03:30:16;15.80;64.90
820;DHT22;392;48.838;2.322;2023-08-06T03:32:44;15.80;65.70
820;DHT22;392;48.838;2.322;2023-08-06T03:35:15;15.80;66.60
820;DHT22;392;48.838;2.322;2023-08-06T03:37:43;15.80;67.30
820;DHT22;392;48.838;2.322;2023-08-06T03:40:11;15.80;66.90
820;DHT22;392;48.838;2.322;2023-08-06T03:42:38;15.80;68.40
820;DHT22;392;48.838;2.322;2023-08-06T03:45:07;15.70;69.40
820;DHT22;392;48.838;2.322;2023-08-06T03:47:36;15.60;70.50
820;DHT22;392;48.838;2.322;2023-08-06T03:50:05;15.50;71.30
820;DHT22;392;48.838;2.322;2023-08-06T03:52:34;15.50;72.60
820;DHT22;392;48.838;2.322;2023-08-06T03:55:01;15.50;72.40
820;DHT22;392;48.838;2.322;2023-08-06T03:57:29;15.40;72.50
820;DHT22;392;48.838;2.322;2023-08-06T03:59:56;15.40;71.60
820;DHT22;392;48.838;2.322;2023-08-06T04:02:26;15.50;71.30
820;DHT22;392;48.838;2.322;2023-08-06T04:04:53;15.50;70.00
820;DHT22;392;48.838;2.322;2023-08-06T04:07:21;15.40;70.30
820;DHT22;392;48.838;2.322;2023-08-06T04:09:53;15.40;70.30
820;DHT22;392;48.838;2.322;2023-08-06T04:12:21;15.50;70.30
820;DHT22;392;48.838;2.322;2023-08-06T04:14:50;15.40;69.20
820;DHT22;392;48.838;2.322;2023-08-06T04:19:48;15.50;68.90
820;DHT22;392;48.838;2.322;2023-08-06T04:22:17;15.50;67.50
820;DHT22;392;48.838;2.322;2023-08-06T04:24:45;15.60;67.20
820;DHT22;392;48.838;2.322;2023-08-06T04:27:15;15.60;66.20
820;DHT22;392;48.838;2.322;2023-08-06T04:29:43;15.60;65.30
820;DHT22;392;48.838;2.322;2023-08-06T04:32:12;15.70;64.70
820;DHT22;392;48.838;2.322;2023-08-06T04:39:41;15.60;62.60
820;DHT22;392;48.838;2.322;2023-08-06T04:42:09;15.50;64.30
820;DHT22;392;48.838;2.322;2023-08-06T04:44:37;15.50;65.20
820;DHT22;392;48.838;2.322;2023-08-06T04:47:05;15.40;64.80
820;DHT22;392;48.838;2.322;2023-08-06T04:49:33;15.40;65.00
820;DHT22;392;48.838;2.322;2023-08-06T04:52:00;15.40;65.90
820;DHT22;392;48.838;2.322;2023-08-06T04:54:27;15.30;64.50
820;DHT22;392;48.838;2.322;2023-08-06T04:56:55;15.40;65.10
820;DHT22;392;48.838;2.322;2023-08-06T04:59:22;15.50;64.40
820;DHT22;392;48.838;2.322;2023-08-06T05:01:51;15.50;64.00
820;DHT22;392;48.838;2.322;2023-08-06T05:04:18;15.50;63.60
820;DHT22;392;48.838;2.322;2023-08-06T05:06:46;15.40;64.00
820;DHT22;392;48.838;2.322;2023-08-06T05:09:13;15.50;64.90
820;DHT22;392;48.838;2.322;2023-08-06T05:11:41;15.50;64.20
820;DHT22;392;48.838;2.322;2023-08-06T05:14:08;15.50;63.80
820;DHT22;392;48.838;2.322;2023-08-06T05:16:35;15.50;63.70
820;DHT22;392;48.838;2.322;2023-08-06T05:19:04;15.60;63.40
820;DHT22;392;48.838;2.322;2023-08-06T05:21:31;15.60;63.10
820;DHT22;392;48.838;2.322;2023-08-06T05:23:58;15.70;63.80
820;DHT22;392;48.838;2.322;2023-08-06T05:26:26;15.60;63.50
820;DHT22;392;48.838;2.322;2023-08-06T05:28:53;15.70;63.60
820;DHT22;392;48.838;2.322;2023-08-06T05:31:20;15.70;63.40
820;DHT22;392;48.838;2.322;2023-08-06T05:33:48;15.70;64.30
820;DHT22;392;48.838;2.322;2023-08-06T05:36:17;15.70;65.10
820;DHT22;392;48.838;2.322;2023-08-06T05:38:44;15.70;66.50
820;DHT22;392;48.838;2.322;2023-08-06T05:41:11;15.70;67.10
820;DHT22;392;48.838;2.322;2023-08-06T05:43:39;15.70;66.50
820;DHT22;392;48.838;2.322;2023-08-06T05:46:06;15.70;67.30
820;DHT22;392;48.838;2.322;2023-08-06T05:48:33;15.70;67.20
820;DHT22;392;48.838;2.322;2023-08-06T05:51:01;15.60;66.70
820;DHT22;392;48.838;2.322;2023-08-06T05:53:29;15.60;68.10
820;DHT22;392;48.838;2.322;2023-08-06T05:55:57;15.60;67.50
820;DHT22;392;48.838;2.322;2023-08-06T05:58:24;15.60;67.90
820;DHT22;392;48.838;2.322;2023-08-06T06:00:54;15.60;67.50
820;DHT22;392;48.838;2.322;2023-08-06T06:03:21;15.60;67.20
820;DHT22;392;48.838;2.322;2023-08-06T06:05:49;15.70;67.10
820;DHT22;392;48.838;2.322;2023-08-06T06:08:16;15.70;66.40
820;DHT22;392;48.838;2.322;2023-08-06T06:10:45;15.70;66.30
820;DHT22;392;48.838;2.322;2023-08-06T06:13:12;15.80;65.80
820;DHT22;392;48.838;2.322;2023-08-06T06:15:40;15.80;65.80
820;DHT22;392;48.838;2.322;2023-08-06T06:18:07;15.90;64.90
820;DHT22;392;48.838;2.322;2023-08-06T06:20:34;16.00;64.60
820;DHT22;392;48.838;2.322;2023-08-06T06:23:01;16.00;64.40
820;DHT22;392;48.838;2.322;2023-08-06T06:25:28;16.20;62.70
820;DHT22;392;48.838;2.322;2023-08-06T06:27:57;16.30;60.30
820;DHT22;392;48.838;2.322;2023-08-06T06:30:25;16.30;58.90
820;DHT22;392;48.838;2.322;2023-08-06T06:32:52;16.40;59.40
820;DHT22;392;48.838;2.322;2023-08-06T06:35:20;16.50;56.80
820;DHT22;392;48.838;2.322;2023-08-06T06:37:47;16.50;55.70
820;DHT22;392;48.838;2.322;2023-08-06T06:40:15;16.60;55.70
820;DHT22;392;48.838;2.322;2023-08-06T06:42:42;16.60;54.30
820;DHT22;392;48.838;2.322;2023-08-06T06:45:11;16.60;54.40
820;DHT22;392;48.838;2.322;2023-08-06T06:47:38;16.50;54.90
820;DHT22;392;48.838;2.322;2023-08-06T06:50:06;16.60;55.70
820;DHT22;392;48.838;2.322;2023-08-06T06:52:35;16.80;56.90
820;DHT22;392;48.838;2.322;2023-08-06T06:55:02;17.20;52.50
820;DHT22;392;48.838;2.322;2023-08-06T06:57:29;17.60;50.60
820;DHT22;392;48.838;2.322;2023-08-06T06:59:57;17.80;47.60
820;DHT22;392;48.838;2.322;2023-08-06T07:02:25;18.60;42.70
820;DHT22;392;48.838;2.322;2023-08-06T07:04:52;18.60;43.00
820;DHT22;392;48.838;2.322;2023-08-06T07:07:20;18.80;38.00
820;DHT22;392;48.838;2.322;2023-08-06T07:09:47;18.90;37.10
820;DHT22;392;48.838;2.322;2023-08-06T07:12:15;19.30;37.70
820;DHT22;392;48.838;2.322;2023-08-06T07:17:10;20.00;30.40
820;DHT22;392;48.838;2.322;2023-08-06T07:19:38;20.60;28.20
820;DHT22;392;48.838;2.322;2023-08-06T07:22:06;20.60;28.20
820;DHT22;392;48.838;2.322;2023-08-06T07:24:33;20.90;28.10
820;DHT22;392;48.838;2.322;2023-08-06T07:27:00;21.30;27.40
820;DHT22;392;48.838;2.322;2023-08-06T07:29:28;21.90;25.20
820;DHT22;392;48.838;2.322;2023-08-06T07:31:55;22.30;25.10
820;DHT22;392;48.838;2.322;2023-08-06T07:34:22;22.90;22.70
820;DHT22;392;48.838;2.322;2023-08-06T07:36:51;23.10;20.90
820;DHT22;392;48.838;2.322;2023-08-06T07:39:18;23.20;20.60
820;DHT22;392;48.838;2.322;2023-08-06T07:41:46;23.60;19.00
820;DHT22;392;48.838;2.322;2023-08-06T07:44:13;23.90;17.90
820;DHT22;392;48.838;2.322;2023-08-06T07:46:40;24.00;17.20
820;DHT22;392;48.838;2.322;2023-08-06T07:49:09;24.20;16.50
820;DHT22;392;48.838;2.322;2023-08-06T07:51:37;24.10;16.30
820;DHT22;392;48.838;2.322;2023-08-06T07:54:06;24.40;15.10
820;DHT22;392;48.838;2.322;2023-08-06T07:56:33;24.50;14.50
820;DHT22;392;48.838;2.322;2023-08-06T07:59:01;24.80;13.80
820;DHT22;392;48.838;2.322;2023-08-06T08:01:29;25.40;13.30
820;DHT22;392;48.838;2.322;2023-08-06T08:03:56;25.60;13.40
820;DHT22;392;48.838;2.322;2023-08-06T08:06:23;25.70;11.10
820;DHT22;392;48.838;2.322;2023-08-06T08:08:50;25.10;12.70
820;DHT22;392;48.838;2.322;2023-08-06T08:11:20;25.00;12.90
820;DHT22;392;48.838;2.322;2023-08-06T08:13:48;24.30;12.80
820;DHT22;392;48.838;2.322;2023-08-06T08:16:15;23.40;15.50
820;DHT22;392;48.838;2.322;2023-08-06T08:18:42;22.40;16.80
820;DHT22;392;48.838;2.322;2023-08-06T08:21:10;21.80;19.10
820;DHT22;392;48.838;2.322;2023-08-06T08:23:37;21.40;20.20
820;DHT22;392;48.838;2.322;2023-08-06T08:26:05;21.60;20.00
820;DHT22;392;48.838;2.322;2023-08-06T08:28:33;22.70;17.40
820;DHT22;392;48.838;2.322;2023-08-06T08:31:01;22.70;17.80
820;DHT22;392;48.838;2.322;2023-08-06T08:33:28;23.40;16.60
820;DHT22;392;48.838;2.322;2023-08-06T08:35:55;24.00;15.30
820;DHT22;392;48.838;2.322;2023-08-06T08:38:23;24.10;14.50
820;DHT22;392;48.838;2.322;2023-08-06T08:40:52;23.60;15.60
820;DHT22;392;48.838;2.322;2023-08-06T08:43:21;22.80;16.80
820;DHT22;392;48.838;2.322;2023-08-06T08:45:52;22.20;17.90
820;DHT22;392;48.838;2.322;2023-08-06T08:48:21;21.60;17.70
820;DHT22;392;48.838;2.322;2023-08-06T08:50:49;21.10;18.80
820;DHT22;392;48.838;2.322;2023-08-06T08:53:17;21.20;18.50
820;DHT22;392;48.838;2.322;2023-08-06T08:55:47;21.40;18.00
820;DHT22;392;48.838;2.322;2023-08-06T08:58:16;22.20;18.10
820;DHT22;392;48.838;2.322;2023-08-06T09:00:45;23.40;15.40
820;DHT22;392;48.838;2.322;2023-08-06T09:03:16;24.00;14.40
820;DHT22;392;48.838;2.322;2023-08-06T09:05:45;24.20;14.30
820;DHT22;392;48.838;2.322;2023-08-06T09:08:18;24.70;12.50
820;DHT22;392;48.838;2.322;2023-08-06T09:10:48;24.60;12.60
820;DHT22;392;48.838;2.322;2023-08-06T09:13:17;24.50;13.60
820;DHT22;392;48.838;2.322;2023-08-06T09:15:45;24.40;13.00
820;DHT22;392;48.838;2.322;2023-08-06T09:18:14;25.30;10.90
820;DHT22;392;48.838;2.322;2023-08-06T09:20:41;25.40;10.90
820;DHT22;392;48.838;2.322;2023-08-06T09:23:09;26.10;11.00
820;DHT22;392;48.838;2.322;2023-08-06T09:25:38;26.60;9.20
820;DHT22;392;48.838;2.322;2023-08-06T09:28:06;26.80;8.00
820;DHT22;392;48.838;2.322;2023-08-06T09:30:35;27.20;7.40
820;DHT22;392;48.838;2.322;2023-08-06T09:33:04;27.50;7.70
820;DHT22;392;48.838;2.322;2023-08-06T09:35:37;27.80;7.40
820;DHT22;392;48.838;2.322;2023-08-06T09:38:08;27.70;7.10
820;DHT22;392;48.838;2.322;2023-08-06T09:40:36;26.90;8.70
820;DHT22;392;48.838;2.322;2023-08-06T09:43:04;26.60;8.20
820;DHT22;392;48.838;2.322;2023-08-06T09:45:33;25.80;9.80
820;DHT22;392;48.838;2.322;2023-08-06T09:48:03;24.90;10.50
820;DHT22;392;48.838;2.322;2023-08-06T09:50:32;24.80;10.30
820;DHT22;392;48.838;2.322;2023-08-06T09:53:03;25.50;10.70
820;DHT22;392;48.838;2.322;2023-08-06T09:55:32;26.50;9.30
820;DHT22;392;48.838;2.322;2023-08-06T09:58:00;26.90;8.30
820;DHT22;392;48.838;2.322;2023-08-06T10:00:27;26.90;7.80
820;DHT22;392;48.838;2.322;2023-08-06T10:03:00;27.20;6.40
820;DHT22;392;48.838;2.322;2023-08-06T10:05:27;26.90;7.40
820;DHT22;392;48.838;2.322;2023-08-06T10:07:57;26.00;8.70
820;DHT22;392;48.838;2.322;2023-08-06T10:10:28;26.00;9.20
820;DHT22;392;48.838;2.322;2023-08-06T10:12:57;25.70;8.90
820;DHT22;392;48.838;2.322;2023-08-06T10:15:28;25.50;8.80
820;DHT22;392;48.838;2.322;2023-08-06T10:17:59;26.10;7.90
820;DHT22;392;48.838;2.322;2023-08-06T10:20:33;26.70;7.20
820;DHT22;392;48.838;2.322;2023-08-06T10:23:02;27.50;5.90
820;DHT22;392;48.838;2.322;2023-08-06T10:25:32;28.10;5.40
820;DHT22;392;48.838;2.322;2023-08-06T10:28:01;28.60;4.20
820;DHT22;392;48.838;2.322;2023-08-06T10:30:41;28.60;4.30
820;DHT22;392;48.838;2.322;2023-08-06T10:33:09;27.50;5.90
820;DHT22;392;48.838;2.322;2023-08-06T10:35:38;26.20;6.50
820;DHT22;392;48.838;2.322;2023-08-06T10:38:10;26.10;7.70
820;DHT22;392;48.838;2.322;2023-08-06T10:40:41;26.90;6.70
820;DHT22;392;48.838;2.322;2023-08-06T10:43:25;27.80;5.60
820;DHT22;392;48.838;2.322;2023-08-06T10:45:54;28.40;4.50
820;DHT22;392;48.838;2.322;2023-08-06T10:48:29;28.40;4.10
820;DHT22;392;48.838;2.322;2023-08-06T10:50:59;27.50;4.90
820;DHT22;392;48.838;2.322;2023-08-06T10:53:27;26.90;5.80
820;DHT22;392;48.838;2.322;2023-08-06T10:55:55;27.30;4.70
820;DHT22;392;48.838;2.322;2023-08-06T10:58:23;27.10;6.00
820;DHT22;392;48.838;2.322;2023-08-06T11:00:50;27.50;5.80
820;DHT22;392;48.838;2.322;2023-08-06T11:05:48;25.50;7.90
820;DHT22;392;48.838;2.322;2023-08-06T11:08:23;25.50;8.30
820;DHT22;392;48.838;2.322;2023-08-06T11:10:51;26.00;6.80
820;DHT22;392;48.838;2.322;2023-08-06T11:13:20;26.90;6.30
820;DHT22;392;48.838;2.322;2023-08-06T11:15:47;27.90;4.40
820;DHT22;392;48.838;2.322;2023-08-06T11:18:15;28.10;4.10
820;DHT22;392;48.838;2.322;2023-08-06T11:23:10;28.60;2.80
820;DHT22;392;48.838;2.322;2023-08-06T11:25:44;28.70;3.70
820;DHT22;392;48.838;2.322;2023-08-06T11:28:11;28.40;3.80
820;DHT22;392;48.838;2.322;2023-08-06T11:30:40;28.50;3.20
820;DHT22;392;48.838;2.322;2023-08-06T11:33:07;28.20;4.80
820;DHT22;392;48.838;2.322;2023-08-06T11:35:36;27.40;5.00
820;DHT22;392;48.838;2.322;2023-08-06T11:38:04;26.30;5.80
820;DHT22;392;48.838;2.322;2023-08-06T11:40:31;25.50;7.40
820;DHT22;392;48.838;2.322;2023-08-06T11:42:59;25.90;7.00
820;DHT22;392;48.838;2.322;2023-08-06T11:45:27;26.60;6.40
820;DHT22;392;48.838;2.322;2023-08-06T11:47:55;26.60;5.20
820;DHT22;392;48.838;2.322;2023-08-06T11:50:24;25.90;6.80
820;DHT22;392;48.838;2.322;2023-08-06T11:52:57;25.20;7.50
820;DHT22;392;48.838;2.322;2023-08-06T11:55:26;25.40;8.40
820;DHT22;392;48.838;2.322;2023-08-06T11:57:55;26.00;6.70
820;DHT22;392;48.838;2.322;2023-08-06T12:00:24;26.20;6.30
820;DHT22;392;48.838;2.322;2023-08-06T12:02:52;25.90;6.30
820;DHT22;392;48.838;2.322;2023-08-06T12:05:22;25.50;7.60
820;DHT22;392;48.838;2.322;2023-08-06T12:07:51;25.60;7.00
820;DHT22;392;48.838;2.322;2023-08-06T12:10:20;25.60;7.50
820;DHT22;392;48.838;2.322;2023-08-06T12:12:47;25.40;7.70
820;DHT22;392;48.838;2.322;2023-08-06T12:15:16;25.10;7.60
820;DHT22;392;48.838;2.322;2023-08-06T12:17:43;24.50;9.00
820;DHT22;392;48.838;2.322;2023-08-06T12:20:12;23.80;9.60
820;DHT22;392;48.838;2.322;2023-08-06T12:22:40;23.10;11.40
820;DHT22;392;48.838;2.322;2023-08-06T12:25:08;22.60;12.80
820;DHT22;392;48.838;2.322;2023-08-06T12:27:39;22.30;12.50
820;DHT22;392;48.838;2.322;2023-08-06T12:30:07;22.60;12.50
820;DHT22;392;48.838;2.322;2023-08-06T12:32:36;22.90;11.60
820;DHT22;392;48.838;2.322;2023-08-06T12:35:07;23.00;11.20
820;DHT22;392;48.838;2.322;2023-08-06T12:37:36;22.90;11.40
820;DHT22;392;48.838;2.322;2023-08-06T12:40:05;22.90;11.50
820;DHT22;392;48.838;2.322;2023-08-06T12:42:33;23.10;11.30
820;DHT22;392;48.838;2.322;2023-08-06T12:45:00;23.80;10.60
820;DHT22;392;48.838;2.322;2023-08-06T12:47:28;24.20;9.80
820;DHT22;392;48.838;2.322;2023-08-06T12:49:55;24.30;9.90
820;DHT22;392;48.838;2.322;2023-08-06T12:52:23;24.20;9.70
820;DHT22;392;48.838;2.322;2023-08-06T12:54:51;24.10;10.50
820;DHT22;392;48.838;2.322;2023-08-06T12:59:46;23.90;9.60
820;DHT22;392;48.838;2.322;2023-08-06T13:02:14;23.80;10.00
820;DHT22;392;48.838;2.322;2023-08-06T13:04:41;23.50;10.30
820;DHT22;392;48.838;2.322;2023-08-06T13:07:09;23.20;11.30
820;DHT22;392;48.838;2.322;2023-08-06T13:09:36;23.00;11.30
820;DHT22;392;48.838;2.322;2023-08-06T13:12:06;22.80;12.50
820;DHT22;392;48.838;2.322;2023-08-06T13:14:33;22.70;12.00
820;DHT22;392;48.838;2.322;2023-08-06T13:17:01;22.60;12.50
820;DHT22;392;48.838;2.322;2023-08-06T13:19:28;22.40;12.50
820;DHT22;392;48.838;2.322;2023-08-06T13:22:01;22.10;13.10
820;DHT22;392;48.838;2.322;2023-08-06T13:24:31;21.80;13.50
820;DHT22;392;48.838;2.322;2023-08-06T13:26:58;21.60;14.00
820;DHT22;392;48.838;2.322;2023-08-06T13:29:27;21.50;14.30
820;DHT22;392;48.838;2.322;2023-08-06T13:31:55;21.60;14.70
820;DHT22;392;48.838;2.322;2023-08-06T13:34:22;21.70;13.90
820;DHT22;392;48.838;2.322;2023-08-06T13:36:50;21.80;14.10
820;DHT22;392;48.838;2.322;2023-08-06T13:39:17;21.90;13.60
820;DHT22;392;48.838;2.322;2023-08-06T13:41:45;22.00;13.90
820;DHT22;392;48.838;2.322;2023-08-06T13:44:13;22.10;13.90
820;DHT22;392;48.838;2.322;2023-08-06T13:46:42;22.30;14.00
820;DHT22;392;48.838;2.322;2023-08-06T13:49:10;22.70;12.60
820;DHT22;392;48.838;2.322;2023-08-06T13:51:38;23.10;12.40
820;DHT22;392;48.838;2.322;2023-08-06T13:54:05;23.20;11.20
820;DHT22;392;48.838;2.322;2023-08-06T13:56:33;22.90;12.10
820;DHT22;392;48.838;2.322;2023-08-06T13:59:02;22.70;13.10
820;DHT22;392;48.838;2.322;2023-08-06T14:01:29;22.50;13.10
820;DHT22;392;48.838;2.322;2023-08-06T14:03:58;22.30;13.50
820;DHT22;392;48.838;2.322;2023-08-06T14:06:25;22.20;14.40
820;DHT22;392;48.838;2.322;2023-08-06T14:08:53;22.30;14.20
820;DHT22;392;48.838;2.322;2023-08-06T14:11:20;22.60;14.10
820;DHT22;392;48.838;2.322;2023-08-06T14:13:47;22.80;13.30
820;DHT22;392;48.838;2.322;2023-08-06T14:16:15;22.80;12.80
820;DHT22;392;48.838;2.322;2023-08-06T14:18:42;22.60;13.10
820;DHT22;392;48.838;2.322;2023-08-06T14:21:11;22.40;13.40
820;DHT22;392;48.838;2.322;2023-08-06T14:26:08;22.10;14.20
820;DHT22;392;48.838;2.322;2023-08-06T14:28:36;22.00;15.20
820;DHT22;392;48.838;2.322;2023-08-06T14:31:03;22.00;15.40
820;DHT22;392;48.838;2.322;2023-08-06T14:33:31;22.10;14.80
820;DHT22;392;48.838;2.322;2023-08-06T14:35:58;22.00;15.50
820;DHT22;392;48.838;2.322;2023-08-06T14:40:55;22.00;15.30
820;DHT22;392;48.838;2.322;2023-08-06T14:43:22;22.10;14.60
820;DHT22;392;48.838;2.322;2023-08-06T14:45:50;22.10;14.40
820;DHT22;392;48.838;2.322;2023-08-06T14:48:17;22.10;13.80
820;DHT22;392;48.838;2.322;2023-08-06T14:50:44;22.00;14.70
820;DHT22;392;48.838;2.322;2023-08-06T14:53:12;22.00;14.60
820;DHT22;392;48.838;2.322;2023-08-06T14:55:42;22.00;14.60
820;DHT22;392;48.838;2.322;2023-08-06T14:58:09;22.00;14.40
820;DHT22;392;48.838;2.322;2023-08-06T15:00:36;22.00;14.70
820;DHT22;392;48.838;2.322;2023-08-06T15:03:04;22.10;15.20
820;DHT22;392;48.838;2.322;2023-08-06T15:05:31;22.10;14.90
820;DHT22;392;48.838;2.322;2023-08-06T15:07:59;21.90;14.80
820;DHT22;392;48.838;2.322;2023-08-06T15:10:27;21.90;15.20
820;DHT22;392;48.838;2.322;2023-08-06T15:12:55;22.00;15.20
820;DHT22;392;48.838;2.322;2023-08-06T15:15:22;22.00;13.80
820;DHT22;392;48.838;2.322;2023-08-06T15:17:50;22.10;14.10
820;DHT22;392;48.838;2.322;2023-08-06T15:20:17;22.10;13.90
820;DHT22;392;48.838;2.322;2023-08-06T15:22:45;22.10;13.50
820;DHT22;392;48.838;2.322;2023-08-06T15:25:12;22.10;13.30
820;DHT22;392;48.838;2.322;2023-08-06T15:30:10;22.00;13.80
820;DHT22;392;48.838;2.322;2023-08-06T15:32:38;21.90;13.50
820;DHT22;392;48.838;2.322;2023-08-06T15:35:10;21.80;14.10
820;DHT22;392;48.838;2.322;2023-08-06T15:37:37;21.60;14.50
820;DHT22;392;48.838;2.322;2023-08-06T15:40:06;21.60;15.60
820;DHT22;392;48.838;2.322;2023-08-06T15:45:01;21.60;14.30
820;DHT22;392;48.838;2.322;2023-08-06T15:50:06;21.50;13.70
820;DHT22;392;48.838;2.322;2023-08-06T15:52:34;21.50;14.30
820;DHT22;392;48.838;2.322;2023-08-06T15:55:02;21.50;14.80
820;DHT22;392;48.838;2.322;2023-08-06T15:57:31;21.40;14.30
820;DHT22;392;48.838;2.322;2023-08-06T15:59:59;21.30;15.10
820;DHT22;392;48.838;2.322;2023-08-06T16:02:26;21.30;14.70
820;DHT22;392;48.838;2.322;2023-08-06T16:04:55;21.20;15.50
820;DHT22;392;48.838;2.322;2023-08-06T16:07:23;21.20;16.10
820;DHT22;392;48.838;2.322;2023-08-06T16:09:52;21.20;15.50
820;DHT22;392;48.838;2.322;2023-08-06T16:12:20;21.20;15.90
820;DHT22;392;48.838;2.322;2023-08-06T16:14:48;21.20;15.50
820;DHT22;392;48.838;2.322;2023-08-06T16:17:16;21.10;16.00
820;DHT22;392;48.838;2.322;2023-08-06T16:19:44;21.00;15.90
820;DHT22;392;48.838;2.322;2023-08-06T16:22:13;20.90;16.20
820;DHT22;392;48.838;2.322;2023-08-06T16:24:40;20.80;16.30
820;DHT22;392;48.838;2.322;2023-08-06T16:27:07;20.80;16.90
820;DHT22;392;48.838;2.322;2023-08-06T16:29:37;20.70;16.70
820;DHT22;392;48.838;2.322;2023-08-06T16:32:05;20.60;17.00
820;DHT22;392;48.838;2.322;2023-08-06T16:34:33;20.70;17.40
820;DHT22;392;48.838;2.322;2023-08-06T16:37:00;20.70;17.20
820;DHT22;392;48.838;2.322;2023-08-06T16:39:30;20.80;16.30
820;DHT22;392;48.838;2.322;2023-08-06T16:41:58;20.80;16.70
820;DHT22;392;48.838;2.322;2023-08-06T16:44:25;21.00;16.80
820;DHT22;392;48.838;2.322;2023-08-06T16:46:56;21.00;16.70
820;DHT22;392;48.838;2.322;2023-08-06T16:49:23;21.10;16.40
820;DHT22;392;48.838;2.322;2023-08-06T16:51:51;21.10;15.70
820;DHT22;392;48.838;2.322;2023-08-06T16:54:18;21.00;15.80
820;DHT22;392;48.838;2.322;2023-08-06T16:56:46;21.00;15.30
820;DHT22;392;48.838;2.322;2023-08-06T16:59:14;21.00;15.70
820;DHT22;392;48.838;2.322;2023-08-06T17:01:41;21.00;15.80
820;DHT22;392;48.838;2.322;2023-08-06T17:04:08;21.00;15.10
820;DHT22;392;48.838;2.322;2023-08-06T17:06:37;21.10;16.00
820;DHT22;392;48.838;2.322;2023-08-06T17:09:04;21.20;14.70
820;DHT22;392;48.838;2.322;2023-08-06T17:11:31;21.20;14.80
820;DHT22;392;48.838;2.322;2023-08-06T17:14:00;21.20;14.70
820;DHT22;392;48.838;2.322;2023-08-06T17:16:27;21.10;15.20
820;DHT22;392;48.838;2.322;2023-08-06T17:18:55;21.00;15.70